Time;durP1;ratioP1;P1;durP2;ratioP2;P2;SDS_P1;SDS_P2;PMS_P1;PMS_P2;Temp;Humidity;BMP_temperature;BMP_pressure;BME280_temperature;BME280_humidity;BME280_pressure;Samples;Min_cycle;Max_cycle;Signal;HPM_P1;HPM_P2
2023/09/27 00:00:13;;;;;;;24.85;22.55;;;15.70;99.90;;;;;;5040938;28;20591;-75
2023/09/27 00:02:40;;;;;;;23.55;21.45;;;15.60;99.90;;;;;;5060917;28;20056;-77
2023/09/27 00:05:07;;;;;;;25.98;23.60;;;15.60;99.90;;;;;;5034210;28;20047;-77
2023/09/27 00:07:33;;;;;;;24.60;22.30;;;15.50;99.90;;;;;;5042252;28;20131;-75
2023/09/27 00:10:00;;;;;;;25.92;23.58;;;15.50;99.90;;;;;;5038973;28;20053;-77
2023/09/27 00:12:26;;;;;;;23.37;21.27;;;15.50;99.90;;;;;;5055430;28;20063;-77
2023/09/27 00:14:53;;;;;;;25.08;22.80;;;15.40;99.90;;;;;;5042286;28;20307;-77
2023/09/27 00:17:20;;;;;;;25.13;23.05;;;15.40;99.90;;;;;;5044747;28;20102;-78
2023/09/27 00:19:46;;;;;;;25.02;22.83;;;15.40;99.90;;;;;;5056695;28;20040;-77
2023/09/27 00:22:11;;;;;;;25.92;23.52;;;15.30;99.90;;;;;;5046781;28;20048;-77
2023/09/27 00:24:38;;;;;;;25.13;22.92;;;15.30;99.90;;;;;;5064179;28;20043;-77
2023/09/27 00:27:04;;;;;;;27.00;24.45;;;15.30;99.90;;;;;;5040176;28;20127;-78
2023/09/27 00:29:30;;;;;;;26.88;24.67;;;15.30;99.90;;;;;;5040764;28;20123;-77
2023/09/27 00:31:56;;;;;;;25.95;23.70;;;15.30;99.90;;;;;;5034763;28;20409;-77
2023/09/27 00:34:22;;;;;;;28.02;25.38;;;15.30;99.90;;;;;;5039922;28;20072;-77
2023/09/27 00:36:49;;;;;;;28.52;25.83;;;15.30;99.90;;;;;;5055559;28;20598;-77
2023/09/27 00:39:14;;;;;;;27.30;25.00;;;15.30;99.90;;;;;;5038110;28;20040;-77
2023/09/27 00:41:40;;;;;;;28.20;25.50;;;15.30;99.90;;;;;;5040246;28;20052;-77
2023/09/27 00:44:06;;;;;;;25.65;23.45;;;15.30;99.90;;;;;;5054942;28;20117;-77
2023/09/27 00:46:32;;;;;;;26.85;24.35;;;15.30;99.90;;;;;;5059833;28;20062;-77
2023/09/27 00:48:58;;;;;;;26.77;24.48;;;15.20;99.90;;;;;;5040348;28;20078;-78
2023/09/27 00:51:25;;;;;;;28.67;26.08;;;15.20;99.90;;;;;;5035979;28;20131;-77
2023/09/27 00:53:54;;;;;;;29.15;26.52;;;15.20;99.90;;;;;;5036301;28;20056;-77
2023/09/27 00:56:20;;;;;;;26.77;24.55;;;15.10;99.90;;;;;;5061569;28;20121;-78
2023/09/27 00:58:46;;;;;;;28.80;26.20;;;15.10;99.90;;;;;;5056408;28;20048;-77
2023/09/27 01:01:13;;;;;;;28.55;25.92;;;15.10;99.90;;;;;;5019906;28;20084;-77
2023/09/27 01:03:39;;;;;;;29.80;27.02;;;15.10;99.90;;;;;;5060529;28;20052;-77
2023/09/27 01:06:06;;;;;;;29.90;27.02;;;15.10;99.90;;;;;;5042691;28;20442;-77
2023/09/27 01:08:31;;;;;;;30.10;27.40;;;15.10;99.90;;;;;;5036227;28;20053;-77
2023/09/27 01:10:57;;;;;;;30.75;27.77;;;15.10;99.90;;;;;;5057193;28;20098;-77
2023/09/27 01:13:23;;;;;;;32.33;29.25;;;15.00;99.90;;;;;;5041834;28;20053;-77
2023/09/27 01:15:48;;;;;;;32.42;29.52;;;15.00;99.90;;;;;;5060282;28;20049;-77
2023/09/27 01:18:14;;;;;;;33.08;30.10;;;15.00;99.90;;;;;;5054545;28;20488;-76
2023/09/27 01:20:40;;;;;;;32.78;29.88;;;15.00;99.90;;;;;;5046328;28;20073;-78
2023/09/27 01:23:06;;;;;;;33.92;30.85;;;15.00;99.90;;;;;;5042415;28;20045;-77
2023/09/27 01:25:37;;;;;;;34.10;31.20;;;15.00;99.90;;;;;;5041118;28;20053;-77
2023/09/27 01:28:08;;;;;;;33.55;30.65;;;15.00;99.90;;;;;;5058937;28;20090;-77
2023/09/27 01:30:34;;;;;;;33.13;30.10;;;15.00;99.90;;;;;;5031756;28;20102;-77
2023/09/27 01:33:05;;;;;;;31.13;28.42;;;15.00;99.90;;;;;;5041507;28;20098;-77
2023/09/27 01:35:33;;;;;;;32.00;29.00;;;15.00;99.90;;;;;;5043782;28;20055;-77
2023/09/27 01:37:58;;;;;;;32.45;29.67;;;15.00;99.90;;;;;;5040055;28;20151;-77
2023/09/27 01:40:29;;;;;;;31.63;28.75;;;15.00;99.90;;;;;;5066112;28;20119;-77
2023/09/27 01:42:55;;;;;;;31.73;28.83;;;15.00;99.90;;;;;;5048074;28;20132;-77
2023/09/27 01:45:23;;;;;;;29.58;26.98;;;15.00;99.90;;;;;;5042562;28;20131;-77
2023/09/27 01:47:49;;;;;;;31.33;28.63;;;15.00;99.90;;;;;;5056236;28;20380;-77
2023/09/27 01:50:14;;;;;;;30.08;27.52;;;15.00;99.90;;;;;;5062340;28;20033;-76
2023/09/27 01:52:40;;;;;;;32.10;29.10;;;15.00;99.90;;;;;;5045695;28;20051;-77
2023/09/27 01:55:06;;;;;;;32.45;29.55;;;15.00;99.90;;;;;;5041384;28;20036;-77
2023/09/27 01:57:32;;;;;;;32.08;29.08;;;15.00;99.90;;;;;;5048949;28;20048;-77
2023/09/27 01:59:58;;;;;;;31.80;28.92;;;15.00;99.90;;;;;;5061223;28;20094;-77
2023/09/27 02:02:23;;;;;;;32.10;29.20;;;15.00;99.90;;;;;;5036168;28;20051;-77
2023/09/27 02:04:49;;;;;;;33.50;30.45;;;15.00;99.90;;;;;;5052592;28;20136;-77
2023/09/27 02:07:15;;;;;;;32.30;29.40;;;15.00;99.90;;;;;;5061861;28;20128;-77
2023/09/27 02:09:40;;;;;;;30.40;27.63;;;15.00;99.90;;;;;;5048267;28;20051;-77
2023/09/27 02:12:06;;;;;;;32.33;29.60;;;15.00;99.90;;;;;;5062580;28;20110;-77
2023/09/27 02:14:32;;;;;;;31.80;28.90;;;15.00;99.90;;;;;;5063142;28;20033;-77
2023/09/27 02:16:57;;;;;;;31.58;28.58;;;15.00;99.90;;;;;;5041376;28;20041;-77
2023/09/27 02:19:23;;;;;;;32.72;29.88;;;15.00;99.90;;;;;;5061401;28;20029;-77
2023/09/27 02:21:49;;;;;;;30.98;28.17;;;14.90;99.90;;;;;;5058373;28;20036;-77
2023/09/27 02:24:16;;;;;;;31.60;28.90;;;14.90;99.90;;;;;;5060329;28;20403;-77
2023/09/27 02:26:43;;;;;;;31.13;28.17;;;14.90;99.90;;;;;;5030764;28;20047;-78
2023/09/27 02:29:09;;;;;;;30.05;27.38;;;14.90;99.90;;;;;;5059866;28;20063;-77
2023/09/27 02:31:35;;;;;;;30.80;28.02;;;14.80;99.90;;;;;;5043733;28;20118;-77
2023/09/27 02:34:01;;;;;;;30.83;27.98;;;14.80;99.90;;;;;;5042441;28;20125;-77
2023/09/27 02:36:26;;;;;;;31.23;28.60;;;14.80;99.90;;;;;;5053873;28;20135;-77
2023/09/27 02:38:52;;;;;;;32.85;29.95;;;14.80;99.90;;;;;;5042608;28;20106;-77
2023/09/27 02:41:18;;;;;;;32.63;29.67;;;14.80;99.90;;;;;;5038234;28;20105;-77
2023/09/27 02:43:43;;;;;;;32.13;29.25;;;14.80;99.90;;;;;;5021315;28;20052;-77
2023/09/27 02:46:09;;;;;;;34.67;31.45;;;14.70;99.90;;;;;;5056705;28;20044;-77
2023/09/27 02:48:35;;;;;;;33.90;30.92;;;14.70;99.90;;;;;;5063256;28;20072;-77
2023/09/27 02:51:01;;;;;;;32.60;29.73;;;14.60;99.90;;;;;;5047652;28;20135;-77
2023/09/27 02:53:27;;;;;;;33.40;30.50;;;14.60;99.90;;;;;;5039720;28;20540;-77
2023/09/27 02:55:53;;;;;;;33.13;30.25;;;14.60;99.90;;;;;;5037797;28;20451;-77
2023/09/27 02:58:18;;;;;;;31.67;28.77;;;14.60;99.90;;;;;;5061710;28;20040;-77
2023/09/27 03:00:44;;;;;;;33.28;30.38;;;14.50;99.90;;;;;;5060378;28;20053;-77
2023/09/27 03:03:10;;;;;;;34.05;31.10;;;14.50;99.90;;;;;;5055346;28;20144;-77
2023/09/27 03:05:36;;;;;;;34.33;31.27;;;14.40;99.90;;;;;;5042811;28;20040;-77
2023/09/27 03:08:03;;;;;;;30.13;27.50;;;14.40;99.90;;;;;;5040314;28;20066;-77
2023/09/27 03:10:29;;;;;;;33.95;31.05;;;14.30;99.90;;;;;;5043047;28;20044;-76
2023/09/27 03:12:55;;;;;;;33.70;30.70;;;14.30;99.90;;;;;;5044321;28;20037;-76
2023/09/27 03:15:21;;;;;;;32.30;29.50;;;14.30;99.90;;;;;;5047314;28;20052;-77
2023/09/27 03:17:48;;;;;;;32.85;29.95;;;14.20;99.90;;;;;;5038789;28;20075;-77
2023/09/27 03:20:17;;;;;;;31.85;29.10;;;14.20;99.90;;;;;;5054889;28;20037;-77
2023/09/27 03:22:43;;;;;;;35.28;32.17;;;14.20;99.90;;;;;;5038331;28;20360;-77
2023/09/27 03:25:09;;;;;;;33.38;30.48;;;14.20;99.90;;;;;;5038294;28;20053;-77
2023/09/27 03:27:36;;;;;;;35.15;31.73;;;14.20;99.90;;;;;;5047878;28;20040;-77
2023/09/27 03:30:03;;;;;;;31.80;29.10;;;14.10;99.90;;;;;;5042667;28;20155;-77
2023/09/27 03:32:29;;;;;;;;;;;14.10;99.90;;;;;;5058935;28;20469;-77
2023/09/27 03:34:55;;;;;;;32.28;29.27;;;14.00;99.90;;;;;;5054542;28;20379;-77
2023/09/27 03:37:20;;;;;;;31.20;28.52;;;14.00;99.90;;;;;;5043220;28;20068;-77
2023/09/27 03:39:46;;;;;;;33.88;30.88;;;14.00;99.90;;;;;;5056079;28;20049;-77
2023/09/27 03:42:12;;;;;;;30.25;27.73;;;13.90;99.90;;;;;;5046866;28;20064;-77
2023/09/27 03:44:38;;;;;;;32.47;29.67;;;13.90;99.90;;;;;;5034346;28;20044;-77
2023/09/27 03:47:04;;;;;;;35.53;32.47;;;13.90;99.90;;;;;;5039425;28;20044;-77
2023/09/27 03:49:29;;;;;;;33.28;30.40;;;13.90;99.90;;;;;;5045327;28;20047;-78
2023/09/27 03:51:55;;;;;;;28.60;26.20;;;13.90;99.90;;;;;;5038104;28;20056;-77
2023/09/27 03:54:22;;;;;;;30.88;28.08;;;13.80;99.90;;;;;;5056458;28;20064;-77
2023/09/27 03:56:47;;;;;;;31.93;29.20;;;13.80;99.90;;;;;;5030679;28;20510;-77
2023/09/27 03:59:13;;;;;;;31.83;29.20;;;13.80;99.90;;;;;;5047104;28;20115;-77
2023/09/27 04:01:39;;;;;;;31.50;28.80;;;13.80;99.90;;;;;;5055865;28;20053;-77
2023/09/27 04:04:05;;;;;;;30.80;27.85;;;13.80;99.90;;;;;;5053971;28;20057;-77
2023/09/27 04:06:31;;;;;;;31.08;28.48;;;13.80;99.90;;;;;;5040013;28;20106;-77
2023/09/27 04:08:56;;;;;;;33.63;30.83;;;13.80;99.90;;;;;;5061979;28;20055;-78
2023/09/27 04:11:22;;;;;;;32.65;29.85;;;13.80;99.90;;;;;;5058848;28;20048;-77
2023/09/27 04:13:48;;;;;;;37.22;34.00;;;13.80;99.90;;;;;;5053634;28;20484;-77
2023/09/27 04:16:15;;;;;;;34.13;31.15;;;13.80;99.90;;;;;;5030690;28;20120;-77
2023/09/27 04:18:40;;;;;;;34.22;31.13;;;13.80;99.90;;;;;;5040736;28;20055;-77
2023/09/27 04:21:10;;;;;;;36.97;33.78;;;13.80;99.90;;;;;;5035528;28;20045;-77
2023/09/27 04:23:36;;;;;;;33.88;30.88;;;13.80;99.90;;;;;;5035699;28;20098;-77
2023/09/27 04:26:06;;;;;;;36.05;32.95;;;13.70;99.90;;;;;;5035589;28;20041;-77
2023/09/27 04:28:32;;;;;;;29.25;26.63;;;13.70;99.90;;;;;;5040321;28;20044;-77
2023/09/27 04:30:58;;;;;;;24.67;22.40;;;13.70;99.90;;;;;;5035936;28;20044;-77
2023/09/27 04:33:24;;;;;;;30.35;27.70;;;13.60;99.90;;;;;;5057292;28;20060;-77
2023/09/27 04:35:50;;;;;;;29.85;27.15;;;13.60;99.90;;;;;;5051618;28;20416;-77
2023/09/27 04:38:16;;;;;;;33.05;30.15;;;13.60;99.90;;;;;;5041725;28;20120;-77
2023/09/27 04:40:42;;;;;;;32.95;30.13;;;13.60;99.90;;;;;;5045863;28;20048;-77
2023/09/27 04:43:08;;;;;;;35.03;31.98;;;13.60;99.90;;;;;;5043004;28;20087;-77
2023/09/27 04:45:34;;;;;;;35.35;32.20;;;13.50;99.90;;;;;;5031602;28;20131;-77
2023/09/27 04:48:00;;;;;;;35.97;32.88;;;13.50;99.90;;;;;;5042045;28;20139;-77
2023/09/27 04:50:25;;;;;;;41.88;38.08;;;13.50;99.90;;;;;;5016442;28;20182;-77
2023/09/27 04:52:51;;;;;;;29.70;27.20;;;13.50;99.90;;;;;;5040034;28;20127;-77
2023/09/27 04:55:17;;;;;;;30.73;28.02;;;13.40;99.90;;;;;;5059796;28;20063;-77
2023/09/27 04:57:43;;;;;;;32.45;29.23;;;13.40;99.90;;;;;;5041181;28;20041;-78
2023/09/27 05:00:19;;;;;;;31.67;28.92;;;13.40;99.90;;;;;;5058280;28;20135;-77
2023/09/27 05:02:48;;;;;;;34.30;31.30;;;13.40;99.90;;;;;;5039236;28;20177;-77
2023/09/27 05:05:14;;;;;;;33.05;29.95;;;13.40;99.90;;;;;;5041070;28;20101;-76
2023/09/27 05:07:40;;;;;;;30.40;27.83;;;13.40;99.90;;;;;;5044217;28;20660;-77
2023/09/27 05:10:06;;;;;;;32.85;29.95;;;13.40;99.90;;;;;;5039380;28;20052;-77
2023/09/27 05:12:32;;;;;;;30.33;27.70;;;13.40;99.90;;;;;;5038304;28;20502;-77
2023/09/27 05:14:58;;;;;;;32.72;29.75;;;13.40;99.90;;;;;;5050063;28;20040;-77
2023/09/27 05:17:25;;;;;;;32.60;29.63;;;13.40;99.90;;;;;;5047797;28;20648;-77
2023/09/27 05:19:51;;;;;;;34.72;31.45;;;13.30;99.90;;;;;;5062702;28;20044;-77
2023/09/27 05:22:19;;;;;;;31.10;28.55;;;13.30;99.90;;;;;;5047679;28;20055;-78
2023/09/27 05:24:46;;;;;;;30.83;28.13;;;13.30;99.90;;;;;;5070802;28;20125;-77
2023/09/27 05:27:13;;;;;;;31.00;28.45;;;13.30;99.90;;;;;;5046006;28;20037;-77
2023/09/27 05:29:39;;;;;;;34.80;31.73;;;13.30;99.90;;;;;;5038472;28;20142;-73
2023/09/27 05:32:05;;;;;;;37.63;34.33;;;13.30;99.90;;;;;;5044879;28;20044;-77
2023/09/27 05:34:31;;;;;;;36.58;33.33;;;13.20;99.90;;;;;;5061516;28;20048;-77
2023/09/27 05:37:00;;;;;;;36.38;33.10;;;13.30;99.90;;;;;;5047286;28;20045;-77
2023/09/27 05:39:26;;;;;;;39.75;36.35;;;13.30;99.90;;;;;;5046751;28;20101;-77
2023/09/27 05:41:52;;;;;;;39.38;35.88;;;13.30;99.90;;;;;;5050749;28;20058;-78
2023/09/27 05:44:18;;;;;;;37.42;34.13;;;13.30;99.90;;;;;;5049020;28;20048;-77
2023/09/27 05:46:44;;;;;;;37.92;34.53;;;13.40;99.90;;;;;;5044660;28;20048;-77
2023/09/27 05:49:11;;;;;;;43.10;38.95;;;13.40;99.90;;;;;;5049628;28;20425;-77
2023/09/27 05:51:37;;;;;;;35.10;31.85;;;13.40;99.90;;;;;;5046475;28;20083;-78
2023/09/27 05:54:05;;;;;;;36.85;33.65;;;13.40;99.90;;;;;;5052590;28;20131;-77
2023/09/27 05:56:32;;;;;;;35.88;32.90;;;13.40;99.90;;;;;;5051115;28;20059;-75
2023/09/27 05:58:59;;;;;;;36.05;32.85;;;13.40;99.90;;;;;;5051154;28;20119;-77
2023/09/27 06:01:25;;;;;;;37.00;33.73;;;13.50;99.90;;;;;;5043636;28;20407;-77
2023/09/27 06:03:51;;;;;;;35.65;32.60;;;13.50;99.90;;;;;;5044240;28;20044;-77
2023/09/27 06:06:19;;;;;;;36.90;33.72;;;13.50;99.90;;;;;;5060915;28;20040;-77
2023/09/27 06:08:45;;;;;;;40.70;37.00;;;13.50;99.90;;;;;;5047402;28;20048;-77
2023/09/27 06:11:11;;;;;;;39.58;36.08;;;13.60;99.90;;;;;;5045889;28;20040;-77
2023/09/27 06:13:37;;;;;;;41.40;37.70;;;13.70;99.90;;;;;;5045887;28;20036;-77
2023/09/27 06:16:11;;;;;;;41.92;38.22;;;13.70;99.90;;;;;;5046852;28;20044;-77
2023/09/27 06:18:37;;;;;;;45.97;42.05;;;13.80;99.90;;;;;;5054840;28;21748;-77
2023/09/27 06:21:04;;;;;;;42.95;39.17;;;13.80;99.90;;;;;;5045829;28;20028;-77
2023/09/27 06:23:30;;;;;;;41.33;37.72;;;13.90;99.90;;;;;;5042885;28;20131;-77
2023/09/27 06:25:55;;;;;;;44.63;40.83;;;14.00;99.90;;;;;;5042622;28;20532;-77
2023/09/27 06:28:21;;;;;;;41.15;37.58;;;14.00;99.90;;;;;;5040475;28;20094;-77
2023/09/27 06:30:47;;;;;;;44.75;40.78;;;14.10;99.90;;;;;;5040378;28;20140;-77
2023/09/27 06:33:13;;;;;;;43.72;39.88;;;14.10;99.90;;;;;;5046213;28;20044;-77
2023/09/27 06:35:40;;;;;;;44.05;40.03;;;14.20;99.90;;;;;;5048399;28;20364;-78
2023/09/27 06:38:05;;;;;;;44.03;40.10;;;14.20;99.90;;;;;;5045897;28;20049;-77
2023/09/27 06:40:31;;;;;;;44.63;40.58;;;14.20;99.90;;;;;;5049449;28;20052;-77
2023/09/27 06:42:57;;;;;;;43.97;40.17;;;14.30;99.90;;;;;;5042676;28;20051;-77
2023/09/27 06:45:23;;;;;;;41.55;38.05;;;14.30;99.90;;;;;;5040288;28;20052;-77
2023/09/27 06:47:49;;;;;;;42.78;39.00;;;14.40;99.90;;;;;;5043466;28;20055;-77
2023/09/27 06:50:19;;;;;;;41.70;37.95;;;14.40;99.90;;;;;;5044403;28;20041;-78
2023/09/27 06:52:46;;;;;;;42.42;38.67;;;14.40;99.90;;;;;;5045307;28;20049;-77
2023/09/27 06:55:19;;;;;;;42.45;38.55;;;14.50;99.90;;;;;;5040412;28;20076;-77
2023/09/27 06:57:46;;;;;;;41.97;38.17;;;14.60;99.90;;;;;;5024886;28;20717;-77
2023/09/27 07:00:18;;;;;;;41.15;37.67;;;14.60;99.90;;;;;;5042341;28;20053;-78
2023/09/27 07:02:47;;;;;;;42.80;39.10;;;14.60;99.90;;;;;;5047258;28;20048;-77
2023/09/27 07:05:13;;;;;;;42.30;38.63;;;14.60;99.90;;;;;;5047798;28;20040;-77
2023/09/27 07:07:40;;;;;;;42.20;38.60;;;14.70;99.90;;;;;;5063550;28;20032;-77
2023/09/27 07:10:07;;;;;;;42.10;38.40;;;14.70;99.90;;;;;;5040085;28;20077;-77
2023/09/27 07:12:36;;;;;;;42.38;38.65;;;14.70;99.90;;;;;;5044545;28;20120;-75
2023/09/27 07:15:23;;;;;;;43.28;39.28;;;14.80;99.90;;;;;;5060894;28;20376;-78
2023/09/27 07:17:49;;;;;;;42.30;38.60;;;14.80;99.90;;;;;;5039486;28;20098;-74
2023/09/27 07:22:47;;;;;;;42.65;38.67;;;14.90;99.90;;;;;;5043002;28;20076;-73
2023/09/27 07:25:16;;;;;;;43.28;39.40;;;15.00;99.90;;;;;;5062809;28;20040;-73
2023/09/27 07:27:43;;;;;;;42.85;39.03;;;15.00;99.90;;;;;;5041986;28;20056;-73
2023/09/27 07:30:17;;;;;;;43.90;39.78;;;15.10;99.90;;;;;;5058282;28;20043;-74
2023/09/27 07:32:47;;;;;;;43.85;39.70;;;15.20;99.90;;;;;;5045540;28;20056;-73
2023/09/27 07:35:16;;;;;;;42.20;38.28;;;15.20;99.90;;;;;;5031301;28;20035;-73
2023/09/27 07:37:43;;;;;;;43.60;39.75;;;15.30;99.90;;;;;;5036907;28;20450;-74
2023/09/27 07:40:11;;;;;;;42.58;38.78;;;15.30;99.90;;;;;;5035674;28;20048;-74
2023/09/27 07:42:37;;;;;;;47.30;42.90;;;15.40;99.90;;;;;;5057252;28;20045;-73
2023/09/27 07:45:05;;;;;;;48.25;43.67;;;15.40;99.90;;;;;;5046030;28;20045;-73
2023/09/27 07:47:33;;;;;;;45.78;41.58;;;15.50;99.90;;;;;;5039378;28;20049;-72
2023/09/27 07:49:59;;;;;;;42.40;38.53;;;15.60;99.90;;;;;;5063477;28;20075;-74
2023/09/27 07:52:25;;;;;;;42.35;38.47;;;15.60;99.90;;;;;;5041924;28;20494;-73
2023/09/27 07:54:51;;;;;;;42.55;38.75;;;15.60;99.90;;;;;;5057413;28;20033;-72
2023/09/27 07:57:17;;;;;;;42.67;38.65;;;15.70;99.90;;;;;;5061460;28;20074;-73
2023/09/27 07:59:43;;;;;;;42.03;38.22;;;15.70;99.90;;;;;;5043912;28;20048;-75
2023/09/27 08:02:09;;;;;;;43.38;39.47;;;15.80;99.90;;;;;;5055960;28;20106;-74
2023/09/27 08:04:39;;;;;;;44.17;40.10;;;15.80;99.90;;;;;;5021635;28;20083;-73
2023/09/27 08:07:05;;;;;;;44.75;40.75;;;15.90;99.90;;;;;;5055777;28;20120;-73
2023/09/27 08:09:31;;;;;;;48.10;43.70;;;15.90;99.90;;;;;;5061969;28;20143;-74
2023/09/27 08:11:57;;;;;;;50.40;45.78;;;16.00;99.90;;;;;;5063168;28;20415;-74
2023/09/27 08:14:23;;;;;;;46.95;42.63;;;16.00;99.90;;;;;;5044051;28;20083;-75
2023/09/27 08:16:51;;;;;;;43.55;39.50;;;16.00;99.90;;;;;;5049483;28;20437;-75
2023/09/27 08:19:16;;;;;;;42.08;38.05;;;16.10;99.90;;;;;;5031003;28;20037;-77
2023/09/27 08:21:42;;;;;;;41.70;37.92;;;16.10;99.90;;;;;;5042717;28;20048;-75
2023/09/27 08:24:08;;;;;;;42.60;38.75;;;16.10;99.90;;;;;;5032437;28;20036;-74
2023/09/27 08:26:34;;;;;;;42.85;38.97;;;16.10;99.90;;;;;;5063949;28;20036;-74
2023/09/27 08:29:01;;;;;;;45.87;41.73;;;16.10;99.90;;;;;;5043045;28;20510;-75
2023/09/27 08:31:26;;;;;;;43.95;39.88;;;16.10;99.90;;;;;;5035737;28;20060;-74
2023/09/27 08:33:52;;;;;;;43.80;39.90;;;16.10;99.90;;;;;;5039776;28;20033;-74
2023/09/27 08:36:18;;;;;;;44.85;40.65;;;16.20;99.90;;;;;;5057871;28;20056;-75
2023/09/27 08:38:44;;;;;;;44.88;40.65;;;16.30;99.90;;;;;;5032916;28;20550;-75
2023/09/27 08:41:12;;;;;;;45.28;41.10;;;16.30;99.90;;;;;;5044444;28;20087;-76
2023/09/27 08:43:38;;;;;;;45.50;41.28;;;16.40;99.90;;;;;;5055774;28;20025;-73
2023/09/27 08:46:04;;;;;;;46.45;42.15;;;16.40;99.90;;;;;;5042204;28;20049;-75
2023/09/27 08:48:30;;;;;;;46.10;41.93;;;16.50;99.90;;;;;;5043769;28;20095;-74
2023/09/27 08:50:59;;;;;;;44.05;40.00;;;16.50;99.90;;;;;;5041126;28;20495;-76
2023/09/27 08:53:25;;;;;;;42.28;38.45;;;16.60;99.90;;;;;;5035548;28;20044;-77
2023/09/27 08:55:51;;;;;;;40.28;36.67;;;16.70;99.90;;;;;;5036979;28;20091;-75
2023/09/27 08:58:18;;;;;;;40.05;36.30;;;16.70;99.90;;;;;;5032161;28;20446;-77
2023/09/27 09:03:14;;;;;;;114.60;39.65;;;17.00;99.90;;;;;;5002124;27;1385768;-74
2023/09/27 09:05:44;;;;;;;44.22;36.83;;;17.00;99.90;;;;;;5057877;28;20049;-75
2023/09/27 09:08:09;;;;;;;39.30;35.30;;;17.20;99.90;;;;;;5046223;28;20095;-72
2023/09/27 09:10:37;;;;;;;34.90;31.50;;;17.30;99.90;;;;;;5055389;28;20037;-72
2023/09/27 09:13:04;;;;;;;;;;;17.40;99.90;;;;;;5045823;28;20524;-72
2023/09/27 09:15:40;;;;;;;33.03;30.02;;;17.40;99.90;;;;;;5054238;28;19920;-72
2023/09/27 09:18:28;;;;;;;34.72;31.50;;;17.50;99.90;;;;;;5050037;28;20053;-72
2023/09/27 09:20:58;;;;;;;32.15;29.38;;;17.60;99.90;;;;;;5044290;28;20037;-71
2023/09/27 09:23:33;;;;;;;34.42;31.08;;;17.70;99.90;;;;;;5046995;28;20057;-72
2023/09/27 09:26:07;;;;;;;34.92;31.73;;;17.80;99.90;;;;;;5044877;28;20083;-74
2023/09/27 09:28:35;;;;;;;32.97;30.08;;;17.80;99.90;;;;;;5048466;28;20064;-75
2023/09/27 09:31:01;;;;;;;34.50;31.05;;;17.90;99.90;;;;;;5049093;28;20053;-74
2023/09/27 09:33:36;;;;;;;33.67;30.60;;;18.00;99.90;;;;;;5054605;28;20128;-75
2023/09/27 09:36:02;;;;;;;34.00;30.95;;;18.10;99.90;;;;;;5049407;28;20086;-74
2023/09/27 09:38:30;;;;;;;37.30;33.72;;;18.30;99.90;;;;;;5046621;28;20385;-71
2023/09/27 09:41:01;;;;;;;35.08;31.77;;;18.50;99.90;;;;;;5051626;28;20037;-71
2023/09/27 09:43:37;;;;;;;33.35;30.25;;;18.70;99.90;;;;;;5052925;28;20060;-70
2023/09/27 09:46:06;;;;;;;33.08;30.08;;;18.80;99.90;;;;;;5049106;28;20083;-70
2023/09/27 09:48:33;;;;;;;32.65;29.65;;;19.00;99.90;;;;;;5049074;28;20409;-70
2023/09/27 09:51:05;;;;;;;33.78;30.75;;;19.00;99.90;;;;;;5054568;28;20151;-69
2023/09/27 09:53:36;;;;;;;31.42;28.52;;;19.10;99.90;;;;;;5051458;28;20512;-69
2023/09/27 09:56:03;;;;;;;30.02;27.23;;;19.20;99.90;;;;;;5051364;28;20044;-70
2023/09/27 09:58:37;;;;;;;30.73;28.02;;;19.30;99.90;;;;;;5056082;28;20038;-70
2023/09/27 10:01:04;;;;;;;29.60;26.73;;;19.40;99.90;;;;;;5043379;28;20060;-70
2023/09/27 10:03:32;;;;;;;29.88;27.17;;;19.40;99.90;;;;;;5077601;28;20578;-70
2023/09/27 10:06:01;;;;;;;30.30;27.50;;;19.40;99.90;;;;;;5079754;28;20046;-75
2023/09/27 10:08:33;;;;;;;29.33;26.48;;;19.40;99.90;;;;;;5065011;28;20045;-74
2023/09/27 10:11:00;;;;;;;29.88;27.08;;;19.40;99.90;;;;;;5068238;28;20055;-75
2023/09/27 10:13:26;;;;;;;29.48;26.88;;;19.40;99.90;;;;;;5061569;28;20064;-76
2023/09/27 10:15:53;;;;;;;28.27;25.58;;;19.40;99.90;;;;;;5061480;28;20400;-72
2023/09/27 10:18:21;;;;;;;27.80;25.27;;;19.40;99.90;;;;;;5050102;28;20059;-71
2023/09/27 10:21:12;;;;;;;29.92;26.70;;;19.40;99.90;;;;;;5060313;28;20037;-73
2023/09/27 10:23:52;;;;;;;29.85;26.85;;;19.50;99.90;;;;;;5039500;28;20065;-73
2023/09/27 10:26:38;;;;;;;28.05;25.30;;;19.50;99.90;;;;;;5044006;28;20052;-72
2023/09/27 10:29:08;;;;;;;27.80;25.10;;;19.60;99.90;;;;;;5062426;28;20056;-72
2023/09/27 10:31:40;;;;;;;26.58;24.00;;;19.70;99.90;;;;;;5054317;28;20040;-73
2023/09/27 10:34:25;;;;;;;25.75;23.15;;;19.80;99.90;;;;;;5056999;28;20048;-73
2023/09/27 10:36:51;;;;;;;23.98;21.70;;;19.90;99.90;;;;;;5057743;28;20445;-74
2023/09/27 10:39:17;;;;;;;22.80;20.58;;;19.90;99.90;;;;;;5052536;28;20090;-74
2023/09/27 10:41:46;;;;;;;22.23;19.88;;;19.90;99.90;;;;;;5047861;28;20076;-72
2023/09/27 10:44:33;;;;;;;22.45;20.20;;;20.00;99.90;;;;;;5047837;28;20098;-72
2023/09/27 10:47:00;;;;;;;20.23;18.23;;;20.00;99.90;;;;;;5054489;28;20531;-72
2023/09/27 10:49:30;;;;;;;23.15;20.75;;;20.10;99.90;;;;;;5050329;28;20106;-73
2023/09/27 10:51:56;;;;;;;22.08;20.00;;;20.20;99.90;;;;;;5048976;28;20049;-73
2023/09/27 10:54:23;;;;;;;22.27;20.15;;;20.20;99.90;;;;;;5063209;28;20115;-72
2023/09/27 10:56:56;;;;;;;22.05;19.95;;;20.30;99.90;;;;;;5058713;28;20625;-73
2023/09/27 10:59:29;;;;;;;21.35;19.35;;;20.30;99.90;;;;;;5059411;28;20055;-80
2023/09/27 11:01:55;;;;;;;21.92;19.77;;;20.50;99.90;;;;;;5058626;28;20076;-81
2023/09/27 11:04:26;;;;;;;21.60;19.35;;;20.50;99.90;;;;;;5054936;28;20041;-81
2023/09/27 11:06:52;;;;;;;19.88;17.98;;;20.60;99.90;;;;;;5053344;28;20044;-78
2023/09/27 11:09:23;;;;;;;18.23;15.77;;;20.70;99.90;;;;;;5052045;28;20404;-77
2023/09/27 11:11:50;;;;;;;17.80;15.30;;;20.70;99.90;;;;;;5049529;28;20049;-77
2023/09/27 11:14:25;;;;;;;;;;;20.70;99.90;;;;;;5052084;28;20128;-76
2023/09/27 11:16:51;;;;;;;19.13;16.00;;;20.70;99.90;;;;;;5048333;28;19925;-77
2023/09/27 11:19:27;;;;;;;19.95;15.80;;;20.70;99.90;;;;;;5054169;28;20535;-77
2023/09/27 11:21:52;;;;;;;19.02;14.70;;;20.70;99.90;;;;;;5061149;28;20097;-77
2023/09/27 11:24:18;;;;;;;17.38;15.57;;;20.70;99.90;;;;;;5062349;28;20040;-77
2023/09/27 11:26:44;;;;;;;20.55;16.60;;;20.80;99.90;;;;;;5059840;28;20130;-78
2023/09/27 11:29:10;;;;;;;17.55;15.80;;;20.90;99.90;;;;;;5058584;28;20041;-77
2023/09/27 11:31:37;;;;;;;17.33;15.48;;;21.00;99.90;;;;;;5056089;28;20044;-76
2023/09/27 11:34:17;;;;;;;17.17;15.43;;;21.00;99.90;;;;;;5049252;28;20045;-77
2023/09/27 11:36:51;;;;;;;15.55;13.45;;;21.10;99.90;;;;;;5064460;28;20075;-77
2023/09/27 11:39:20;;;;;;;14.80;12.07;;;21.20;99.90;;;;;;5050995;28;20068;-77
2023/09/27 11:41:46;;;;;;;14.65;13.18;;;21.20;99.90;;;;;;5056750;28;20090;-77
2023/09/27 11:44:25;;;;;;;14.73;12.77;;;21.20;99.90;;;;;;5049259;28;20094;-77
2023/09/27 11:47:02;;;;;;;16.30;12.95;;;21.20;99.90;;;;;;5050483;28;20067;-77
2023/09/27 11:49:28;;;;;;;14.40;12.60;;;21.20;99.90;;;;;;5048252;28;20049;-77
2023/09/27 11:51:53;;;;;;;16.65;12.82;;;21.20;99.90;;;;;;5055403;28;20051;-77
2023/09/27 11:54:19;;;;;;;14.57;12.95;;;21.30;99.90;;;;;;5058640;28;20037;-77
2023/09/27 11:56:45;;;;;;;14.75;13.35;;;21.30;99.90;;;;;;5055440;28;20102;-76
2023/09/27 11:59:10;;;;;;;14.88;13.38;;;21.40;99.90;;;;;;5058850;28;20040;-76
2023/09/27 12:01:36;;;;;;;15.77;13.20;;;21.50;99.90;;;;;;5057538;28;20094;-76
2023/09/27 12:04:03;;;;;;;14.52;13.13;;;21.50;99.90;;;;;;5059463;28;20113;-77
2023/09/27 12:06:29;;;;;;;13.27;11.75;;;21.50;99.90;;;;;;5048181;28;20117;-77
2023/09/27 12:08:55;;;;;;;12.07;10.88;;;21.50;99.90;;;;;;5049743;28;20499;-77
2023/09/27 12:11:21;;;;;;;16.23;12.43;;;21.50;99.90;;;;;;5054687;28;20041;-77
2023/09/27 12:13:47;;;;;;;12.75;10.88;;;21.50;99.90;;;;;;5047158;28;20041;-77
2023/09/27 12:16:13;;;;;;;10.52;9.43;;;21.50;99.90;;;;;;5047954;28;20048;-77
2023/09/27 12:18:38;;;;;;;13.32;10.38;;;21.50;99.90;;;;;;5049966;28;20056;-77
2023/09/27 12:21:04;;;;;;;12.18;9.45;;;21.60;99.90;;;;;;5047785;28;20055;-77
2023/09/27 12:23:30;;;;;;;11.77;8.00;;;21.60;99.90;;;;;;5049822;28;20559;-77
2023/09/27 12:25:57;;;;;;;10.48;7.68;;;21.60;99.90;;;;;;5054071;28;20051;-77
2023/09/27 12:28:22;;;;;;;9.02;8.10;;;21.50;99.90;;;;;;5067663;28;20064;-76
2023/09/27 12:30:49;;;;;;;10.32;7.57;;;21.50;99.90;;;;;;5051123;28;20045;-77
2023/09/27 12:33:15;;;;;;;10.73;8.20;;;21.60;99.90;;;;;;5059180;28;20050;-77